sensor_id;sensor_type;location;lat;lon;timestamp;temperature;humidity
12847;DHT22;6492;48.128;8.320;2023-02-01T00:01:56;0.10;69.90
12847;DHT22;6492;48.128;8.320;2023-02-01T00:05:59;0.10;70.30
12847;DHT22;6492;48.128;8.320;2023-02-01T00:10:00;0.10;69.90
12847;DHT22;6492;48.128;8.320;2023-02-01T00:14:05;0.10;69.80
12847;DHT22;6492;48.128;8.320;2023-02-01T00:18:08;0.10;69.80
12847;DHT22;6492;48.128;8.320;2023-02-01T00:22:10;0.10;69.80
12847;DHT22;6492;48.128;8.320;2023-02-01T00:26:14;0.10;70.70
12847;DHT22;6492;48.128;8.320;2023-02-01T00:30:18;0.10;69.50
12847;DHT22;6492;48.128;8.320;2023-02-01T00:34:20;0.10;69.20
12847;DHT22;6492;48.128;8.320;2023-02-01T00:38:22;0.10;68.60
12847;DHT22;6492;48.128;8.320;2023-02-01T00:42:24;0.10;68.40
12847;DHT22;6492;48.128;8.320;2023-02-01T00:46:27;0.10;68.20
12847;DHT22;6492;48.128;8.320;2023-02-01T00:50:29;0.20;68.10
12847;DHT22;6492;48.128;8.320;2023-02-01T00:54:31;0.10;68.00
12847;DHT22;6492;48.128;8.320;2023-02-01T00:58:34;0.10;68.20
12847;DHT22;6492;48.128;8.320;2023-02-01T01:02:37;0.10;68.70
12847;DHT22;6492;48.128;8.320;2023-02-01T01:06:39;0.10;69.20
12847;DHT22;6492;48.128;8.320;2023-02-01T01:10:41;0.00;69.50
12847;DHT22;6492;48.128;8.320;2023-02-01T01:14:43;0.00;70.00
12847;DHT22;6492;48.128;8.320;2023-02-01T01:18:47;0.00;70.40
12847;DHT22;6492;48.128;8.320;2023-02-01T01:22:49;0.00;70.40
12847;DHT22;6492;48.128;8.320;2023-02-01T01:26:51;0.00;70.70
12847;DHT22;6492;48.128;8.320;2023-02-01T01:30:53;0.00;70.80
12847;DHT22;6492;48.128;8.320;2023-02-01T01:35:09;0.00;70.70
12847;DHT22;6492;48.128;8.320;2023-02-01T01:39:11;0.00;70.60
12847;DHT22;6492;48.128;8.320;2023-02-01T01:43:14;0.00;70.40
12847;DHT22;6492;48.128;8.320;2023-02-01T01:47:16;0.00;69.70
12847;DHT22;6492;48.128;8.320;2023-02-01T01:51:21;0.00;69.20
12847;DHT22;6492;48.128;8.320;2023-02-01T01:55:25;0.20;69.00
12847;DHT22;6492;48.128;8.320;2023-02-01T01:59:27;0.00;68.70
12847;DHT22;6492;48.128;8.320;2023-02-01T02:03:34;0.10;68.30
12847;DHT22;6492;48.128;8.320;2023-02-01T02:07:40;0.10;68.00
12847;DHT22;6492;48.128;8.320;2023-02-01T02:11:43;0.00;67.70
12847;DHT22;6492;48.128;8.320;2023-02-01T02:15:51;0.00;67.80
12847;DHT22;6492;48.128;8.320;2023-02-01T02:20:27;0.00;68.00
12847;DHT22;6492;48.128;8.320;2023-02-01T02:25:00;0.00;68.30
12847;DHT22;6492;48.128;8.320;2023-02-01T02:34:02;0.00;68.50
12847;DHT22;6492;48.128;8.320;2023-02-01T02:38:13;0.00;68.60
12847;DHT22;6492;48.128;8.320;2023-02-01T02:42:22;0.00;68.60
12847;DHT22;6492;48.128;8.320;2023-02-01T02:46:49;0.00;68.90
12847;DHT22;6492;48.128;8.320;2023-02-01T02:51:14;0.00;68.70
12847;DHT22;6492;48.128;8.320;2023-02-01T02:55:32;0.00;68.60
12847;DHT22;6492;48.128;8.320;2023-02-01T02:59:38;0.00;68.90
12847;DHT22;6492;48.128;8.320;2023-02-01T03:03:59;0.00;68.30
12847;DHT22;6492;48.128;8.320;2023-02-01T03:08:14;0.00;67.90
12847;DHT22;6492;48.128;8.320;2023-02-01T03:12:17;0.00;67.90
12847;DHT22;6492;48.128;8.320;2023-02-01T03:16:41;0.00;67.90
12847;DHT22;6492;48.128;8.320;2023-02-01T03:20:49;0.00;68.10
12847;DHT22;6492;48.128;8.320;2023-02-01T03:25:02;0.00;67.90
12847;DHT22;6492;48.128;8.320;2023-02-01T03:29:09;0.10;67.30
12847;DHT22;6492;48.128;8.320;2023-02-01T03:33:15;0.10;66.60
12847;DHT22;6492;48.128;8.320;2023-02-01T03:37:25;0.10;66.10
12847;DHT22;6492;48.128;8.320;2023-02-01T03:41:34;0.10;65.40
12847;DHT22;6492;48.128;8.320;2023-02-01T03:45:41;0.20;63.00
12847;DHT22;6492;48.128;8.320;2023-02-01T03:49:47;0.20;61.20
12847;DHT22;6492;48.128;8.320;2023-02-01T03:53:52;0.20;60.40
12847;DHT22;6492;48.128;8.320;2023-02-01T03:58:00;0.20;59.90
12847;DHT22;6492;48.128;8.320;2023-02-01T04:02:04;0.20;59.50
12847;DHT22;6492;48.128;8.320;2023-02-01T04:06:06;0.20;58.70
12847;DHT22;6492;48.128;8.320;2023-02-01T04:10:09;0.30;58.60
12847;DHT22;6492;48.128;8.320;2023-02-01T04:14:12;0.30;58.20
12847;DHT22;6492;48.128;8.320;2023-02-01T04:18:14;0.30;58.60
12847;DHT22;6492;48.128;8.320;2023-02-01T04:22:15;0.30;58.40
12847;DHT22;6492;48.128;8.320;2023-02-01T04:26:17;0.30;58.50
12847;DHT22;6492;48.128;8.320;2023-02-01T04:30:21;0.30;59.00
12847;DHT22;6492;48.128;8.320;2023-02-01T04:34:24;0.20;59.70
12847;DHT22;6492;48.128;8.320;2023-02-01T04:38:26;0.20;59.90
12847;DHT22;6492;48.128;8.320;2023-02-01T04:42:29;0.20;61.30
12847;DHT22;6492;48.128;8.320;2023-02-01T04:46:32;0.10;62.00
12847;DHT22;6492;48.128;8.320;2023-02-01T04:50:34;0.10;61.90
12847;DHT22;6492;48.128;8.320;2023-02-01T04:54:36;0.00;61.60
12847;DHT22;6492;48.128;8.320;2023-02-01T04:58:38;0.00;61.60
12847;DHT22;6492;48.128;8.320;2023-02-01T05:02:41;0.00;61.80
12847;DHT22;6492;48.128;8.320;2023-02-01T05:06:43;0.00;62.00
12847;DHT22;6492;48.128;8.320;2023-02-01T05:10:45;0.00;61.90
12847;DHT22;6492;48.128;8.320;2023-02-01T05:14:46;0.00;62.70
12847;DHT22;6492;48.128;8.320;2023-02-01T05:18:50;0.00;63.20
12847;DHT22;6492;48.128;8.320;2023-02-01T05:23:03;0.00;63.70
12847;DHT22;6492;48.128;8.320;2023-02-01T05:27:14;0.10;63.90
12847;DHT22;6492;48.128;8.320;2023-02-01T05:31:16;0.00;62.90
12847;DHT22;6492;48.128;8.320;2023-02-01T05:35:19;0.00;62.60
12847;DHT22;6492;48.128;8.320;2023-02-01T05:39:21;0.00;62.70
12847;DHT22;6492;48.128;8.320;2023-02-01T05:43:23;0.00;62.60
12847;DHT22;6492;48.128;8.320;2023-02-01T05:47:42;0.00;62.50
12847;DHT22;6492;48.128;8.320;2023-02-01T05:51:45;0.00;62.60
12847;DHT22;6492;48.128;8.320;2023-02-01T05:55:46;0.00;62.70
12847;DHT22;6492;48.128;8.320;2023-02-01T05:59:48;0.10;63.30
12847;DHT22;6492;48.128;8.320;2023-02-01T06:03:50;0.10;63.30
12847;DHT22;6492;48.128;8.320;2023-02-01T06:07:53;0.10;63.40
12847;DHT22;6492;48.128;8.320;2023-02-01T06:11:55;0.10;63.50
12847;DHT22;6492;48.128;8.320;2023-02-01T06:15:57;0.10;63.40
12847;DHT22;6492;48.128;8.320;2023-02-01T06:19:59;0.10;63.10
12847;DHT22;6492;48.128;8.320;2023-02-01T06:24:02;0.10;62.90
12847;DHT22;6492;48.128;8.320;2023-02-01T06:28:04;0.10;62.40
12847;DHT22;6492;48.128;8.320;2023-02-01T06:32:06;0.10;61.90
12847;DHT22;6492;48.128;8.320;2023-02-01T06:36:10;0.20;60.40
12847;DHT22;6492;48.128;8.320;2023-02-01T06:40:14;0.20;59.90
12847;DHT22;6492;48.128;8.320;2023-02-01T06:44:16;0.20;60.70
12847;DHT22;6492;48.128;8.320;2023-02-01T06:48:18;0.20;61.20
12847;DHT22;6492;48.128;8.320;2023-02-01T06:52:20;0.30;60.00
12847;DHT22;6492;48.128;8.320;2023-02-01T06:56:23;0.30;58.00
12847;DHT22;6492;48.128;8.320;2023-02-01T07:00:25;0.30;56.90
12847;DHT22;6492;48.128;8.320;2023-02-01T07:04:27;0.30;56.80
12847;DHT22;6492;48.128;8.320;2023-02-01T07:08:30;0.40;57.60
12847;DHT22;6492;48.128;8.320;2023-02-01T07:12:33;0.30;57.90
12847;DHT22;6492;48.128;8.320;2023-02-01T07:16:36;0.30;58.30
12847;DHT22;6492;48.128;8.320;2023-02-01T07:20:38;0.20;58.80
12847;DHT22;6492;48.128;8.320;2023-02-01T07:24:39;0.30;58.90
12847;DHT22;6492;48.128;8.320;2023-02-01T07:28:43;0.30;58.80
12847;DHT22;6492;48.128;8.320;2023-02-01T07:32:44;0.30;57.90
12847;DHT22;6492;48.128;8.320;2023-02-01T07:36:46;0.40;56.50
12847;DHT22;6492;48.128;8.320;2023-02-01T07:40:48;0.40;54.90
12847;DHT22;6492;48.128;8.320;2023-02-01T07:44:51;0.50;54.20
12847;DHT22;6492;48.128;8.320;2023-02-01T07:48:53;0.60;53.20
12847;DHT22;6492;48.128;8.320;2023-02-01T07:52:55;0.70;53.20
12847;DHT22;6492;48.128;8.320;2023-02-01T07:56:56;0.80;51.10
12847;DHT22;6492;48.128;8.320;2023-02-01T08:01:00;0.90;50.00
12847;DHT22;6492;48.128;8.320;2023-02-01T08:05:19;0.80;49.50
12847;DHT22;6492;48.128;8.320;2023-02-01T08:09:21;0.80;50.50
12847;DHT22;6492;48.128;8.320;2023-02-01T08:13:22;0.70;51.40
12847;DHT22;6492;48.128;8.320;2023-02-01T08:17:25;0.70;52.10
12847;DHT22;6492;48.128;8.320;2023-02-01T08:21:28;0.60;52.90
12847;DHT22;6492;48.128;8.320;2023-02-01T08:25:36;0.50;55.40
12847;DHT22;6492;48.128;8.320;2023-02-01T08:29:39;0.60;54.30
12847;DHT22;6492;48.128;8.320;2023-02-01T08:33:43;0.70;52.50
12847;DHT22;6492;48.128;8.320;2023-02-01T08:37:45;0.80;49.90
12847;DHT22;6492;48.128;8.320;2023-02-01T08:41:47;0.80;47.20
12847;DHT22;6492;48.128;8.320;2023-02-01T08:46:09;0.70;46.40
12847;DHT22;6492;48.128;8.320;2023-02-01T08:50:13;0.70;44.50
12847;DHT22;6492;48.128;8.320;2023-02-01T08:54:15;0.70;41.80
12847;DHT22;6492;48.128;8.320;2023-02-01T08:58:17;0.70;40.80
12847;DHT22;6492;48.128;8.320;2023-02-01T09:02:19;0.70;40.80
12847;DHT22;6492;48.128;8.320;2023-02-01T09:06:23;0.70;40.10
12847;DHT22;6492;48.128;8.320;2023-02-01T09:10:24;0.90;40.80
12847;DHT22;6492;48.128;8.320;2023-02-01T09:14:26;1.20;41.10
12847;DHT22;6492;48.128;8.320;2023-02-01T09:18:28;1.40;39.40
12847;DHT22;6492;48.128;8.320;2023-02-01T09:22:31;1.40;39.50
12847;DHT22;6492;48.128;8.320;2023-02-01T09:26:33;1.50;39.70
12847;DHT22;6492;48.128;8.320;2023-02-01T09:30:35;1.70;39.00
12847;DHT22;6492;48.128;8.320;2023-02-01T09:34:37;1.90;37.10
12847;DHT22;6492;48.128;8.320;2023-02-01T09:38:41;2.10;35.80
12847;DHT22;6492;48.128;8.320;2023-02-01T09:43:12;2.10;35.50
12847;DHT22;6492;48.128;8.320;2023-02-01T09:47:18;2.10;35.60
12847;DHT22;6492;48.128;8.320;2023-02-01T09:51:23;1.90;36.30
12847;DHT22;6492;48.128;8.320;2023-02-01T09:55:34;1.70;37.10
12847;DHT22;6492;48.128;8.320;2023-02-01T09:59:41;1.50;39.60
12847;DHT22;6492;48.128;8.320;2023-02-01T10:03:44;1.60;39.90
12847;DHT22;6492;48.128;8.320;2023-02-01T10:07:53;1.70;39.50
12847;DHT22;6492;48.128;8.320;2023-02-01T10:12:13;1.70;39.70
12847;DHT22;6492;48.128;8.320;2023-02-01T10:16:27;1.70;39.80
12847;DHT22;6492;48.128;8.320;2023-02-01T10:20:47;1.80;41.00
12847;DHT22;6492;48.128;8.320;2023-02-01T10:25:00;1.90;39.90
12847;DHT22;6492;48.128;8.320;2023-02-01T10:29:14;2.00;39.70
12847;DHT22;6492;48.128;8.320;2023-02-01T10:33:19;2.00;40.40
12847;DHT22;6492;48.128;8.320;2023-02-01T10:37:27;1.80;39.20
12847;DHT22;6492;48.128;8.320;2023-02-01T10:41:32;1.80;39.00
12847;DHT22;6492;48.128;8.320;2023-02-01T10:45:37;1.70;38.20
12847;DHT22;6492;48.128;8.320;2023-02-01T10:49:43;1.70;36.70
12847;DHT22;6492;48.128;8.320;2023-02-01T10:53:52;1.60;37.10
12847;DHT22;6492;48.128;8.320;2023-02-01T10:57:59;1.60;37.70
12847;DHT22;6492;48.128;8.320;2023-02-01T11:02:16;1.80;37.80
12847;DHT22;6492;48.128;8.320;2023-02-01T11:06:27;1.90;38.40
12847;DHT22;6492;48.128;8.320;2023-02-01T11:10:38;1.70;39.20
12847;DHT22;6492;48.128;8.320;2023-02-01T11:14:40;1.70;39.80
12847;DHT22;6492;48.128;8.320;2023-02-01T11:18:43;1.60;40.60
12847;DHT22;6492;48.128;8.320;2023-02-01T11:22:47;1.60;42.20
12847;DHT22;6492;48.128;8.320;2023-02-01T11:26:49;1.60;42.90
12847;DHT22;6492;48.128;8.320;2023-02-01T11:30:55;1.70;41.40
12847;DHT22;6492;48.128;8.320;2023-02-01T11:35:01;1.70;43.20
12847;DHT22;6492;48.128;8.320;2023-02-01T11:39:18;1.80;46.70
12847;DHT22;6492;48.128;8.320;2023-02-01T11:43:24;1.90;44.40
12847;DHT22;6492;48.128;8.320;2023-02-01T11:47:27;1.90;43.20
12847;DHT22;6492;48.128;8.320;2023-02-01T11:51:41;1.90;42.90
12847;DHT22;6492;48.128;8.320;2023-02-01T11:55:54;1.70;43.50
12847;DHT22;6492;48.128;8.320;2023-02-01T12:00:19;1.30;43.30
12847;DHT22;6492;48.128;8.320;2023-02-01T12:09:13;1.10;41.60
12847;DHT22;6492;48.128;8.320;2023-02-01T12:13:29;1.10;40.50
12847;DHT22;6492;48.128;8.320;2023-02-01T12:17:51;1.00;39.80
12847;DHT22;6492;48.128;8.320;2023-02-01T12:22:03;1.00;38.60
12847;DHT22;6492;48.128;8.320;2023-02-01T12:26:34;1.00;38.60
12847;DHT22;6492;48.128;8.320;2023-02-01T12:35:35;1.40;36.70
12847;DHT22;6492;48.128;8.320;2023-02-01T12:39:40;1.50;35.90
12847;DHT22;6492;48.128;8.320;2023-02-01T12:43:51;1.50;35.70
12847;DHT22;6492;48.128;8.320;2023-02-01T12:47:56;1.50;35.30
12847;DHT22;6492;48.128;8.320;2023-02-01T12:52:04;1.60;36.00
12847;DHT22;6492;48.128;8.320;2023-02-01T12:56:11;1.50;35.00
12847;DHT22;6492;48.128;8.320;2023-02-01T13:00:24;1.40;34.60
12847;DHT22;6492;48.128;8.320;2023-02-01T13:04:33;1.40;34.60
12847;DHT22;6492;48.128;8.320;2023-02-01T13:08:41;1.50;34.90
12847;DHT22;6492;48.128;8.320;2023-02-01T13:12:49;1.40;33.60
12847;DHT22;6492;48.128;8.320;2023-02-01T13:16:59;1.40;34.00
12847;DHT22;6492;48.128;8.320;2023-02-01T13:21:04;1.40;34.20
12847;DHT22;6492;48.128;8.320;2023-02-01T13:25:13;1.40;34.20
12847;DHT22;6492;48.128;8.320;2023-02-01T13:29:15;1.30;33.90
12847;DHT22;6492;48.128;8.320;2023-02-01T13:33:34;1.20;34.70
12847;DHT22;6492;48.128;8.320;2023-02-01T13:42:22;1.20;35.40
12847;DHT22;6492;48.128;8.320;2023-02-01T13:46:25;1.20;34.80
12847;DHT22;6492;48.128;8.320;2023-02-01T13:50:31;1.20;35.20
12847;DHT22;6492;48.128;8.320;2023-02-01T13:54:38;1.20;34.60
12847;DHT22;6492;48.128;8.320;2023-02-01T13:58:41;1.10;36.00
12847;DHT22;6492;48.128;8.320;2023-02-01T14:07:22;1.10;35.40
12847;DHT22;6492;48.128;8.320;2023-02-01T14:11:42;1.10;34.80
12847;DHT22;6492;48.128;8.320;2023-02-01T14:16:11;1.00;34.30
12847;DHT22;6492;48.128;8.320;2023-02-01T14:20:44;1.00;34.40
12847;DHT22;6492;48.128;8.320;2023-02-01T14:24:56;1.00;34.00
12847;DHT22;6492;48.128;8.320;2023-02-01T14:29:02;1.00;34.10
12847;DHT22;6492;48.128;8.320;2023-02-01T14:33:14;1.00;34.50
12847;DHT22;6492;48.128;8.320;2023-02-01T14:37:28;1.00;33.70
12847;DHT22;6492;48.128;8.320;2023-02-01T14:41:32;1.00;34.70
12847;DHT22;6492;48.128;8.320;2023-02-01T14:45:49;1.00;34.50
12847;DHT22;6492;48.128;8.320;2023-02-01T14:49:56;1.00;33.50
12847;DHT22;6492;48.128;8.320;2023-02-01T14:53:58;1.00;33.50
12847;DHT22;6492;48.128;8.320;2023-02-01T14:58:06;1.00;33.20
12847;DHT22;6492;48.128;8.320;2023-02-01T15:02:20;1.00;33.50
12847;DHT22;6492;48.128;8.320;2023-02-01T15:06:29;1.00;34.20
12847;DHT22;6492;48.128;8.320;2023-02-01T15:10:32;0.90;35.10
12847;DHT22;6492;48.128;8.320;2023-02-01T15:14:37;0.90;35.40
12847;DHT22;6492;48.128;8.320;2023-02-01T15:18:41;0.80;35.50
12847;DHT22;6492;48.128;8.320;2023-02-01T15:22:52;0.80;35.30
12847;DHT22;6492;48.128;8.320;2023-02-01T15:26:55;0.80;36.10
12847;DHT22;6492;48.128;8.320;2023-02-01T15:31:00;0.70;36.90
12847;DHT22;6492;48.128;8.320;2023-02-01T15:35:02;0.70;37.80
12847;DHT22;6492;48.128;8.320;2023-02-01T15:39:16;0.60;37.70
12847;DHT22;6492;48.128;8.320;2023-02-01T15:43:20;0.60;38.80
12847;DHT22;6492;48.128;8.320;2023-02-01T15:47:26;0.60;38.20
12847;DHT22;6492;48.128;8.320;2023-02-01T15:51:32;0.60;38.60
12847;DHT22;6492;48.128;8.320;2023-02-01T15:55:36;0.60;38.50
12847;DHT22;6492;48.128;8.320;2023-02-01T15:59:43;0.60;37.90
12847;DHT22;6492;48.128;8.320;2023-02-01T16:03:47;0.60;38.50
12847;DHT22;6492;48.128;8.320;2023-02-01T16:07:56;0.60;38.20
12847;DHT22;6492;48.128;8.320;2023-02-01T16:12:17;0.50;38.80
12847;DHT22;6492;48.128;8.320;2023-02-01T16:16:21;0.50;39.30
12847;DHT22;6492;48.128;8.320;2023-02-01T16:20:24;0.50;39.50
12847;DHT22;6492;48.128;8.320;2023-02-01T16:24:45;0.50;39.30
12847;DHT22;6492;48.128;8.320;2023-02-01T16:33:31;0.50;39.50
12847;DHT22;6492;48.128;8.320;2023-02-01T16:37:45;0.50;39.80
12847;DHT22;6492;48.128;8.320;2023-02-01T16:41:46;0.50;39.10
12847;DHT22;6492;48.128;8.320;2023-02-01T16:45:49;0.50;39.30
12847;DHT22;6492;48.128;8.320;2023-02-01T16:49:52;0.50;39.60
12847;DHT22;6492;48.128;8.320;2023-02-01T16:54:20;0.50;39.60
12847;DHT22;6492;48.128;8.320;2023-02-01T16:58:21;0.50;39.70
12847;DHT22;6492;48.128;8.320;2023-02-01T17:02:24;0.50;39.50
12847;DHT22;6492;48.128;8.320;2023-02-01T17:06:35;0.50;39.30
12847;DHT22;6492;48.128;8.320;2023-02-01T17:15:36;0.50;39.90
12847;DHT22;6492;48.128;8.320;2023-02-01T17:19:47;0.50;39.90
12847;DHT22;6492;48.128;8.320;2023-02-01T17:23:52;0.40;40.30
12847;DHT22;6492;48.128;8.320;2023-02-01T17:27:54;0.50;39.70
12847;DHT22;6492;48.128;8.320;2023-02-01T17:31:57;0.50;39.80
12847;DHT22;6492;48.128;8.320;2023-02-01T17:36:01;0.50;40.40
12847;DHT22;6492;48.128;8.320;2023-02-01T17:40:03;0.50;40.80
12847;DHT22;6492;48.128;8.320;2023-02-01T17:44:16;0.50;40.50
12847;DHT22;6492;48.128;8.320;2023-02-01T17:48:20;0.50;41.20
12847;DHT22;6492;48.128;8.320;2023-02-01T17:52:33;0.50;40.50
12847;DHT22;6492;48.128;8.320;2023-02-01T17:56:36;0.50;40.70
12847;DHT22;6492;48.128;8.320;2023-02-01T18:00:47;0.50;40.90
12847;DHT22;6492;48.128;8.320;2023-02-01T18:04:58;0.50;40.50
12847;DHT22;6492;48.128;8.320;2023-02-01T18:09:13;0.60;40.90
12847;DHT22;6492;48.128;8.320;2023-02-01T18:13:15;0.50;41.90
12847;DHT22;6492;48.128;8.320;2023-02-01T18:17:17;0.50;43.20
12847;DHT22;6492;48.128;8.320;2023-02-01T18:21:21;0.40;42.90
12847;DHT22;6492;48.128;8.320;2023-02-01T18:25:25;0.40;41.90
12847;DHT22;6492;48.128;8.320;2023-02-01T18:29:27;0.40;42.50
12847;DHT22;6492;48.128;8.320;2023-02-01T18:38:27;0.40;41.90
12847;DHT22;6492;48.128;8.320;2023-02-01T18:42:29;0.50;42.00
12847;DHT22;6492;48.128;8.320;2023-02-01T18:46:30;0.50;41.60
12847;DHT22;6492;48.128;8.320;2023-02-01T18:50:34;0.50;41.00
12847;DHT22;6492;48.128;8.320;2023-02-01T18:54:38;0.50;42.40
12847;DHT22;6492;48.128;8.320;2023-02-01T18:59:13;0.50;43.90
12847;DHT22;6492;48.128;8.320;2023-02-01T19:03:16;0.50;42.70
12847;DHT22;6492;48.128;8.320;2023-02-01T19:07:18;0.40;43.10
12847;DHT22;6492;48.128;8.320;2023-02-01T19:11:29;0.40;43.50
12847;DHT22;6492;48.128;8.320;2023-02-01T19:15:31;0.40;44.00
12847;DHT22;6492;48.128;8.320;2023-02-01T19:19:36;0.40;44.60
12847;DHT22;6492;48.128;8.320;2023-02-01T19:23:42;0.40;44.60
12847;DHT22;6492;48.128;8.320;2023-02-01T19:27:45;0.40;44.10
12847;DHT22;6492;48.128;8.320;2023-02-01T19:31:58;0.40;43.70
12847;DHT22;6492;48.128;8.320;2023-02-01T19:36:02;0.40;43.70
12847;DHT22;6492;48.128;8.320;2023-02-01T19:40:06;0.40;43.60
12847;DHT22;6492;48.128;8.320;2023-02-01T19:44:09;0.40;43.80
12847;DHT22;6492;48.128;8.320;2023-02-01T19:48:12;0.40;43.90
12847;DHT22;6492;48.128;8.320;2023-02-01T19:52:15;0.40;44.30
12847;DHT22;6492;48.128;8.320;2023-02-01T19:56:27;0.40;44.50
12847;DHT22;6492;48.128;8.320;2023-02-01T20:00:40;0.40;44.10
12847;DHT22;6492;48.128;8.320;2023-02-01T20:04:42;0.40;44.40
12847;DHT22;6492;48.128;8.320;2023-02-01T20:08:47;0.40;45.00
12847;DHT22;6492;48.128;8.320;2023-02-01T20:12:52;0.50;45.80
12847;DHT22;6492;48.128;8.320;2023-02-01T20:16:55;0.40;45.30
12847;DHT22;6492;48.128;8.320;2023-02-01T20:20:58;0.40;44.90
12847;DHT22;6492;48.128;8.320;2023-02-01T20:25:00;0.40;44.30
12847;DHT22;6492;48.128;8.320;2023-02-01T20:29:04;0.40;44.40
12847;DHT22;6492;48.128;8.320;2023-02-01T20:33:07;0.40;44.20
12847;DHT22;6492;48.128;8.320;2023-02-01T20:37:08;0.40;44.60
12847;DHT22;6492;48.128;8.320;2023-02-01T20:41:10;0.40;45.10
12847;DHT22;6492;48.128;8.320;2023-02-01T20:45:12;0.40;45.50
12847;DHT22;6492;48.128;8.320;2023-02-01T20:49:17;0.40;45.40
12847;DHT22;6492;48.128;8.320;2023-02-01T20:53:25;0.40;45.20
12847;DHT22;6492;48.128;8.320;2023-02-01T20:57:27;0.40;45.30
12847;DHT22;6492;48.128;8.320;2023-02-01T21:01:29;0.40;45.10
12847;DHT22;6492;48.128;8.320;2023-02-01T21:05:32;0.40;45.50
12847;DHT22;6492;48.128;8.320;2023-02-01T21:09:40;0.40;45.30
12847;DHT22;6492;48.128;8.320;2023-02-01T21:13:43;0.40;45.90
12847;DHT22;6492;48.128;8.320;2023-02-01T21:17:49;0.30;46.50
12847;DHT22;6492;48.128;8.320;2023-02-01T21:22:20;0.40;46.90
12847;DHT22;6492;48.128;8.320;2023-02-01T21:26:23;0.40;47.10
12847;DHT22;6492;48.128;8.320;2023-02-01T21:30:37;0.40;45.90
12847;DHT22;6492;48.128;8.320;2023-02-01T21:34:39;0.40;45.10
12847;DHT22;6492;48.128;8.320;2023-02-01T21:38:56;0.40;45.50
12847;DHT22;6492;48.128;8.320;2023-02-01T21:43:03;0.40;45.40
12847;DHT22;6492;48.128;8.320;2023-02-01T21:47:04;0.40;45.30
12847;DHT22;6492;48.128;8.320;2023-02-01T21:51:07;0.40;46.00
12847;DHT22;6492;48.128;8.320;2023-02-01T21:55:12;0.40;45.60
12847;DHT22;6492;48.128;8.320;2023-02-01T21:59:15;0.40;45.40
12847;DHT22;6492;48.128;8.320;2023-02-01T22:03:16;0.40;44.80
12847;DHT22;6492;48.128;8.320;2023-02-01T22:07:18;0.40;45.10
12847;DHT22;6492;48.128;8.320;2023-02-01T22:11:22;0.40;45.90
12847;DHT22;6492;48.128;8.320;2023-02-01T22:15:24;0.40;46.20
12847;DHT22;6492;48.128;8.320;2023-02-01T22:19:28;0.40;46.80
12847;DHT22;6492;48.128;8.320;2023-02-01T22:23:30;0.40;47.00
12847;DHT22;6492;48.128;8.320;2023-02-01T22:27:33;0.40;47.50
12847;DHT22;6492;48.128;8.320;2023-02-01T22:31:35;0.40;47.70
12847;DHT22;6492;48.128;8.320;2023-02-01T22:35:37;0.30;47.50
12847;DHT22;6492;48.128;8.320;2023-02-01T22:39:39;0.30;48.80
12847;DHT22;6492;48.128;8.320;2023-02-01T22:43:42;0.40;47.00
12847;DHT22;6492;48.128;8.320;2023-02-01T22:47:44;0.40;47.60
12847;DHT22;6492;48.128;8.320;2023-02-01T22:51:46;0.40;47.30
12847;DHT22;6492;48.128;8.320;2023-02-01T22:55:50;0.40;46.80
12847;DHT22;6492;48.128;8.320;2023-02-01T22:59:53;0.40;46.70
12847;DHT22;6492;48.128;8.320;2023-02-01T23:03:55;0.50;46.80
12847;DHT22;6492;48.128;8.320;2023-02-01T23:07:58;0.40;47.30
12847;DHT22;6492;48.128;8.320;2023-02-01T23:11:59;0.40;47.90
12847;DHT22;6492;48.128;8.320;2023-02-01T23:16:05;0.40;48.40
12847;DHT22;6492;48.128;8.320;2023-02-01T23:20:10;0.50;48.60
12847;DHT22;6492;48.128;8.320;2023-02-01T23:24:13;0.40;49.30
12847;DHT22;6492;48.128;8.320;2023-02-01T23:28:15;0.40;51.80
12847;DHT22;6492;48.128;8.320;2023-02-01T23:32:19;0.40;53.10
12847;DHT22;6492;48.128;8.320;2023-02-01T23:36:21;0.40;53.20
12847;DHT22;6492;48.128;8.320;2023-02-01T23:40:23;0.30;54.10
12847;DHT22;6492;48.128;8.320;2023-02-01T23:44:25;0.30;55.90
12847;DHT22;6492;48.128;8.320;2023-02-01T23:48:28;0.30;56.70
12847;DHT22;6492;48.128;8.320;2023-02-01T23:52:30;0.20;58.20
12847;DHT22;6492;48.128;8.320;2023-02-01T23:56:34;0.10;59.70
